Time;durP1;ratioP1;P1;durP2;ratioP2;P2;SDS_P1;SDS_P2;PMS_P1;PMS_P2;Temp;Humidity;BMP_temperature;BMP_pressure;BME280_temperature;BME280_humidity;BME280_pressure;Samples;Min_cycle;Max_cycle;Signal;HPM_P1;HPM_P2
2023/05/20 00:01:18;;;;;;;15.20;4.20;;;;;;;13.42;64.54;100052.69;5079572;28;20146;-76
2023/05/20 00:03:45;;;;;;;15.52;5.22;;;;;;;13.40;64.67;100059.81;5079543;28;20004;-75
2023/05/20 00:06:10;;;;;;;9.23;4.00;;;;;;;13.40;64.26;100060.69;5079632;28;20081;-76
2023/05/20 00:08:35;;;;;;;10.98;4.30;;;;;;;13.40;64.59;100060.69;5061631;28;20111;-76
2023/05/20 00:11:01;;;;;;;13.67;4.93;;;;;;;13.39;64.61;100052.75;5083703;28;20035;-76
2023/05/20 00:13:26;;;;;;;8.50;4.00;;;;;;;13.34;64.78;100051.09;5057543;28;20623;-76
2023/05/20 00:15:52;;;;;;;13.03;4.60;;;;;;;13.30;64.62;100044.13;5059439;28;20404;-75
2023/05/20 00:18:17;;;;;;;12.77;4.25;;;;;;;13.30;64.85;100049.41;5059391;28;20112;-77
2023/05/20 00:20:43;;;;;;;12.63;4.67;;;;;;;13.30;64.77;100045.88;5059427;28;20033;-75
2023/05/20 00:23:09;;;;;;;13.95;4.78;;;;;;;13.30;64.72;100048.53;5059269;28;20013;-75
2023/05/20 00:25:34;;;;;;;14.80;4.70;;;;;;;13.26;64.87;100041.53;5057302;28;20028;-76
2023/05/20 00:27:59;;;;;;;15.10;4.57;;;;;;;13.26;64.70;100047.72;5059281;28;20025;-76
2023/05/20 00:30:25;;;;;;;11.07;4.37;;;;;;;13.25;64.85;100040.66;5059253;28;20028;-76
2023/05/20 00:32:50;;;;;;;14.80;4.68;;;;;;;13.23;64.96;100036.31;5059456;28;20013;-76
2023/05/20 00:35:16;;;;;;;13.50;4.63;;;;;;;13.20;64.89;100042.53;5059269;28;20021;-75
2023/05/20 00:37:42;;;;;;;17.60;4.37;;;;;;;13.18;65.04;100037.28;5057770;28;20785;-76
2023/05/20 00:40:07;;;;;;;14.82;4.32;;;;;;;13.16;64.86;100041.72;5057491;28;20028;-75
2023/05/20 00:42:33;;;;;;;12.63;4.47;;;;;;;13.13;64.98;100031.19;5057833;28;20444;-76
2023/05/20 00:44:59;;;;;;;10.85;4.55;;;;;;;13.07;65.21;100020.72;5058951;28;20029;-75
2023/05/20 00:47:30;;;;;;;14.97;4.70;;;;;;;13.03;65.46;100016.41;5057886;28;20027;-76
2023/05/20 00:49:56;;;;;;;10.43;4.63;;;;;;;13.01;65.62;100026.13;5057657;28;20048;-76
2023/05/20 00:52:22;;;;;;;14.85;5.15;;;;;;;12.96;65.78;100020.94;5058811;28;20032;-75
2023/05/20 00:54:48;;;;;;;13.37;4.63;;;;;;;12.94;65.50;100021.88;5058979;28;20453;-76
2023/05/20 00:57:15;;;;;;;12.57;4.40;;;;;;;12.92;65.45;100025.41;5058501;28;20457;-76
2023/05/20 00:59:40;;;;;;;10.55;4.55;;;;;;;12.90;65.73;100024.56;5057444;28;20043;-76
2023/05/20 01:02:06;;;;;;;10.30;4.47;;;;;;;12.86;65.83;100016.72;5056892;28;20017;-75
2023/05/20 01:04:32;;;;;;;11.93;4.27;;;;;;;12.84;66.01;100013.22;5058606;28;20032;-76
2023/05/20 01:07:01;;;;;;;13.90;4.85;;;;;;;12.81;66.09;100018.56;5058290;28;20043;-76
2023/05/20 01:09:27;;;;;;;10.13;4.88;;;;;;;12.79;66.06;100018.59;5060219;28;20029;-75
2023/05/20 01:12:02;;;;;;;13.32;4.80;;;;;;;12.78;66.28;100015.09;5045657;28;20025;-76
2023/05/20 01:14:34;;;;;;;10.93;4.22;;;;;;;12.75;66.30;100022.19;5078245;28;20031;-77
2023/05/20 01:17:08;;;;;;;11.97;4.43;;;;;;;12.74;66.11;100015.16;5078366;28;20067;-76
2023/05/20 01:19:33;;;;;;;13.40;4.70;;;;;;;12.73;65.97;100010.78;5078306;28;20024;-76
2023/05/20 01:22:02;;;;;;;14.90;4.60;;;;;;;12.72;66.12;100014.31;5078140;28;20035;-76
2023/05/20 01:24:27;;;;;;;20.27;4.70;;;;;;;12.70;66.19;100010.81;5078123;28;20035;-76
2023/05/20 01:26:53;;;;;;;11.65;5.25;;;;;;;12.66;66.07;99998.53;5078087;28;20024;-76
2023/05/20 01:29:18;;;;;;;14.40;4.67;;;;;;;12.63;66.52;100002.97;5060026;28;20092;-76
2023/05/20 01:31:46;;;;;;;14.93;5.17;;;;;;;12.61;66.66;99996.84;5060030;28;20073;-76
2023/05/20 01:34:12;;;;;;;13.23;4.70;;;;;;;12.58;66.70;99990.78;5078112;28;20062;-76
2023/05/20 01:36:39;;;;;;;11.88;4.55;;;;;;;12.55;66.54;99996.97;5060267;28;20119;-75
2023/05/20 01:39:05;;;;;;;13.85;4.68;;;;;;;12.54;66.92;99992.59;5077977;28;20070;-76
2023/05/20 01:41:33;;;;;;;13.15;5.00;;;;;;;12.54;66.60;99996.97;5077784;28;20032;-76
2023/05/20 01:43:59;;;;;;;16.53;5.37;;;;;;;12.48;67.34;99997.97;5077767;28;20028;-76
2023/05/20 01:46:24;;;;;;;13.52;5.22;;;;;;;12.42;67.11;99998.94;5077818;28;20040;-76
2023/05/20 01:48:50;;;;;;;10.83;5.30;;;;;;;12.40;67.31;99998.09;5077791;28;20020;-75
2023/05/20 01:51:16;;;;;;;14.57;5.32;;;;;;;12.40;67.43;99994.56;5077575;28;20086;-76
2023/05/20 01:53:42;;;;;;;12.02;5.00;;;;;;;12.37;67.25;99997.25;5077871;28;20096;-76
2023/05/20 01:56:07;;;;;;;14.00;5.13;;;;;;;12.34;67.54;99992.91;5077371;28;20052;-76
2023/05/20 01:58:33;;;;;;;12.17;4.97;;;;;;;12.29;67.62;99995.63;5077615;28;20024;-75
2023/05/20 02:00:59;;;;;;;13.60;5.57;;;;;;;12.30;67.85;99992.09;5077432;28;20033;-75
2023/05/20 02:03:24;;;;;;;12.60;4.77;;;;;;;12.32;67.78;99989.44;5059274;28;20044;-76
2023/05/20 02:05:49;;;;;;;13.63;4.93;;;;;;;12.32;68.00;99992.94;5058968;28;20085;-75
2023/05/20 02:08:15;;;;;;;14.73;5.47;;;;;;;12.33;67.91;99989.38;5077378;28;20551;-75
2023/05/20 02:10:40;;;;;;;14.37;5.30;;;;;;;12.33;68.16;99980.63;5081185;28;20024;-75
2023/05/20 02:13:06;;;;;;;12.07;5.27;;;;;;;12.35;68.49;99982.31;5076751;28;20033;-76
2023/05/20 02:15:31;;;;;;;13.27;5.63;;;;;;;12.39;67.77;99984.91;5077195;28;20064;-76
2023/05/20 02:17:56;;;;;;;16.20;5.57;;;;;;;12.42;67.83;99974.28;5047619;28;20264;-75
2023/05/20 02:20:22;;;;;;;13.73;5.23;;;;;;;12.45;67.68;99982.19;5059300;28;20116;-76
2023/05/20 02:22:47;;;;;;;13.77;5.23;;;;;;;12.47;67.76;99978.59;5076659;28;20017;-75
2023/05/20 02:25:13;;;;;;;11.30;5.13;;;;;;;12.51;67.63;99979.44;5076900;28;20020;-76
2023/05/20 02:27:39;;;;;;;11.27;4.87;;;;;;;12.54;67.75;99973.22;5077064;28;20107;-75
2023/05/20 02:30:05;;;;;;;14.35;5.10;;;;;;;12.55;67.68;99967.91;5077096;28;20024;-76
2023/05/20 02:32:32;;;;;;;14.35;5.50;;;;;;;12.56;67.78;99967.00;5076870;28;20030;-76
2023/05/20 02:34:57;;;;;;;11.77;4.90;;;;;;;12.58;67.65;99959.94;5077062;28;20016;-75
2023/05/20 02:37:23;;;;;;;10.85;5.07;;;;;;;12.56;67.98;99951.16;5076844;28;20024;-76
2023/05/20 02:39:48;;;;;;;13.37;5.30;;;;;;;12.56;67.98;99959.09;5077004;28;20024;-75
2023/05/20 02:42:14;;;;;;;11.23;4.90;;;;;;;12.56;67.81;99951.16;5076562;28;20028;-76
2023/05/20 02:44:40;;;;;;;11.93;5.30;;;;;;;12.57;68.42;99950.25;5076801;28;20111;-76
2023/05/20 02:47:05;;;;;;;13.03;5.43;;;;;;;12.57;68.17;99947.63;5076689;28;20031;-76
2023/05/20 02:49:31;;;;;;;16.57;6.30;;;;;;;12.58;67.99;99938.81;5076909;28;20080;-75
2023/05/20 02:51:56;;;;;;;12.37;4.90;;;;;;;12.59;68.11;99944.97;5058825;28;20270;-76
2023/05/20 02:54:21;;;;;;;13.33;5.90;;;;;;;12.57;68.05;99937.06;5076655;28;20017;-76
2023/05/20 02:56:47;;;;;;;19.40;5.50;;;;;;;12.57;68.26;99942.34;5076479;28;20107;-75
2023/05/20 02:59:12;;;;;;;15.50;5.27;;;;;;;12.56;67.99;99937.09;5076977;28;20029;-75
2023/05/20 03:01:39;;;;;;;13.40;5.22;;;;;;;12.57;67.99;99933.56;5076005;28;20563;-76
2023/05/20 03:04:04;;;;;;;17.13;5.03;;;;;;;12.56;67.97;99932.69;5073176;28;20017;-76
2023/05/20 03:06:32;;;;;;;14.10;4.95;;;;;;;12.55;68.22;99933.56;5076418;28;20031;-76
2023/05/20 03:08:58;;;;;;;14.32;5.60;;;;;;;12.53;68.28;99923.94;5058636;28;20041;-76
2023/05/20 03:11:23;;;;;;;12.73;5.67;;;;;;;12.51;68.27;99913.41;5076301;28;20031;-75
2023/05/20 03:13:49;;;;;;;13.27;5.37;;;;;;;12.47;68.30;99912.56;5075998;28;20041;-76
2023/05/20 03:16:15;;;;;;;14.90;5.80;;;;;;;12.44;68.55;99910.00;5076325;28;20025;-75
2023/05/20 03:18:41;;;;;;;14.27;5.88;;;;;;;12.42;68.26;99910.91;5076533;28;20016;-76
2023/05/20 03:21:07;;;;;;;14.02;5.78;;;;;;;12.39;68.53;99905.69;5076373;28;20485;-76
2023/05/20 03:23:32;;;;;;;12.83;5.87;;;;;;;12.38;68.16;99901.31;5058302;28;20039;-75
2023/05/20 03:25:58;;;;;;;14.75;6.22;;;;;;;12.37;68.96;99907.47;5075994;28;20043;-76
2023/05/20 03:28:23;;;;;;;12.60;5.57;;;;;;;12.35;68.62;99908.38;5076434;28;20036;-76
2023/05/20 03:30:48;;;;;;;15.77;6.10;;;;;;;12.35;69.03;99900.47;5076196;28;20016;-75
2023/05/20 03:33:14;;;;;;;14.23;6.23;;;;;;;12.34;68.99;99904.00;5076479;28;20066;-76
2023/05/20 03:35:40;;;;;;;14.30;5.65;;;;;;;12.32;69.17;99905.78;5079790;28;20500;-75
2023/05/20 03:38:05;;;;;;;15.73;6.40;;;;;;;12.31;69.52;99904.06;5080221;28;20024;-76
2023/05/20 03:40:31;;;;;;;16.13;6.55;;;;;;;12.28;69.48;99906.75;5080033;28;20098;-76
2023/05/20 03:42:56;;;;;;;17.47;6.20;;;;;;;12.26;69.61;99903.28;5080076;28;20077;-76
2023/05/20 03:45:22;;;;;;;18.53;6.40;;;;;;;12.28;69.51;99903.22;5080074;28;20535;-75
2023/05/20 03:47:47;;;;;;;14.80;6.10;;;;;;;12.29;69.54;99900.56;5080097;28;20502;-75
2023/05/20 03:50:12;;;;;;;18.60;6.13;;;;;;;12.31;70.19;99898.78;5080143;28;20262;-76
2023/05/20 03:52:39;;;;;;;15.97;5.63;;;;;;;12.33;69.64;99891.69;5062041;28;20078;-76
2023/05/20 03:55:05;;;;;;;20.45;6.88;;;;;;;12.35;69.62;99891.69;5079786;28;20025;-76
2023/05/20 03:57:31;;;;;;;16.90;6.83;;;;;;;12.33;69.97;99888.19;5079331;28;20035;-75
2023/05/20 03:59:56;;;;;;;15.75;6.57;;;;;;;12.33;70.08;99886.41;5079737;28;20131;-75
2023/05/20 04:02:21;;;;;;;14.63;5.90;;;;;;;12.34;69.86;99887.31;5061973;28;20029;-76
2023/05/20 04:04:47;;;;;;;13.33;6.20;;;;;;;12.33;70.05;99889.06;5079809;28;20086;-76
2023/05/20 04:07:12;;;;;;;22.23;6.70;;;;;;;12.32;70.07;99884.66;5079609;28;20114;-76
2023/05/20 04:09:38;;;;;;;16.08;6.60;;;;;;;12.33;70.20;99883.78;5083462;28;20024;-75
2023/05/20 04:12:04;;;;;;;14.30;6.43;;;;;;;12.34;70.05;99882.03;5066112;28;20117;-76
2023/05/20 04:14:30;;;;;;;13.48;6.40;;;;;;;12.32;70.42;99882.03;5061804;28;20036;-76
2023/05/20 04:16:55;;;;;;;12.60;5.93;;;;;;;12.34;70.24;99882.03;5061639;28;20020;-75
2023/05/20 04:19:22;;;;;;;15.53;6.53;;;;;;;12.34;70.24;99884.66;5079649;28;20020;-75
2023/05/20 04:21:48;;;;;;;14.77;6.25;;;;;;;12.34;70.32;99880.22;5079495;28;20472;-76
2023/05/20 04:24:14;;;;;;;19.38;6.97;;;;;;;12.34;70.59;99882.03;5079433;28;20055;-76
2023/05/20 04:26:39;;;;;;;17.20;6.50;;;;;;;12.31;70.38;99884.72;5079191;28;20037;-75
2023/05/20 04:29:05;;;;;;;14.93;6.17;;;;;;;12.29;70.44;99884.72;5079521;28;20082;-76
2023/05/20 04:31:30;;;;;;;16.60;6.37;;;;;;;12.30;70.55;99891.75;5079322;28;20031;-76
2023/05/20 04:33:56;;;;;;;17.00;7.25;;;;;;;12.30;70.81;99886.47;5061400;28;20020;-75
2023/05/20 04:36:27;;;;;;;15.38;6.20;;;;;;;12.27;70.74;99886.53;5079561;28;20461;-76
2023/05/20 04:38:53;;;;;;;17.20;6.43;;;;;;;12.27;70.43;99885.66;5061329;28;20025;-76
2023/05/20 04:41:18;;;;;;;17.83;6.55;;;;;;;12.28;70.48;99884.75;5079072;28;20032;-75
2023/05/20 04:43:44;;;;;;;17.33;6.63;;;;;;;12.27;70.59;99881.25;5079119;28;20084;-75
2023/05/20 04:46:10;;;;;;;19.85;6.75;;;;;;;12.25;70.94;99876.88;5060776;28;20043;-76
2023/05/20 04:48:35;;;;;;;15.33;6.37;;;;;;;12.25;70.88;99880.41;5079212;28;20030;-75
2023/05/20 04:51:01;;;;;;;16.20;6.55;;;;;;;12.26;70.72;99878.63;5079039;28;20099;-76
2023/05/20 04:53:29;;;;;;;15.82;6.30;;;;;;;12.26;70.79;99876.88;5079148;28;20395;-75
2023/05/20 04:55:55;;;;;;;14.80;6.97;;;;;;;12.27;70.87;99878.59;5071221;28;20025;-76
2023/05/20 04:58:23;;;;;;;23.90;6.95;;;;;;;12.28;70.69;99883.00;5064845;28;20047;-76
2023/05/20 05:00:50;;;;;;;17.27;6.80;;;;;;;12.30;71.17;99880.34;5078775;28;20020;-76
2023/05/20 05:03:16;;;;;;;18.75;6.70;;;;;;;12.31;70.82;99888.22;5078715;28;20530;-75
2023/05/20 05:05:42;;;;;;;19.05;7.65;;;;;;;12.33;70.93;99889.06;5078747;28;20075;-76
2023/05/20 05:08:08;;;;;;;17.07;7.33;;;;;;;12.35;71.24;99895.19;5060562;28;20020;-76
2023/05/20 05:10:34;;;;;;;14.70;6.55;;;;;;;12.37;71.17;99894.28;5064689;28;20036;-75
2023/05/20 05:13:00;;;;;;;15.63;6.38;;;;;;;12.41;71.11;99890.69;5078247;28;20094;-76
2023/05/20 05:15:26;;;;;;;17.33;6.43;;;;;;;12.42;71.06;99890.66;5078781;28;20040;-75
2023/05/20 05:17:52;;;;;;;21.38;7.05;;;;;;;12.47;71.14;99890.59;5067310;28;20033;-76
2023/05/20 05:20:17;;;;;;;22.77;7.30;;;;;;;12.51;70.93;99887.00;5058398;28;20029;-75
2023/05/20 05:22:43;;;;;;;15.52;6.55;;;;;;;12.54;71.19;99892.22;5058182;28;20028;-76
2023/05/20 05:25:09;;;;;;;22.43;7.97;;;;;;;12.58;71.73;99887.75;5058188;28;20037;-76
2023/05/20 05:27:35;;;;;;;15.70;6.90;;;;;;;12.60;70.89;99891.25;5058214;28;20028;-76
2023/05/20 05:30:02;;;;;;;19.85;6.65;;;;;;;12.62;71.16;99887.66;5058235;28;20088;-76
2023/05/20 05:32:27;;;;;;;14.75;6.63;;;;;;;12.66;71.04;99887.59;5058147;28;20025;-76
2023/05/20 05:34:53;;;;;;;15.63;7.80;;;;;;;12.69;71.32;99891.06;5058197;28;20040;-76
2023/05/20 05:37:20;;;;;;;20.47;7.53;;;;;;;12.74;71.37;99891.84;5068080;28;20028;-76
2023/05/20 05:39:45;;;;;;;20.38;6.97;;;;;;;12.80;71.07;99890.00;5074644;28;20037;-76
2023/05/20 05:42:10;;;;;;;16.67;6.20;;;;;;;12.87;70.95;99889.81;5057915;28;20090;-76
2023/05/20 05:44:36;;;;;;;17.50;7.70;;;;;;;12.93;71.09;99891.47;5058011;28;20740;-76
2023/05/20 05:47:01;;;;;;;19.63;7.60;;;;;;;13.00;71.09;99893.09;5039985;28;20405;-76
2023/05/20 05:49:27;;;;;;;17.87;7.13;;;;;;;13.06;70.97;99886.81;5058354;28;20491;-76
2023/05/20 05:51:52;;;;;;;16.87;7.23;;;;;;;13.20;70.76;99890.06;5057388;28;20064;-76
2023/05/20 05:54:19;;;;;;;18.50;7.03;;;;;;;13.36;70.19;99895.00;5057721;28;20107;-76
2023/05/20 05:56:45;;;;;;;18.95;7.22;;;;;;;13.52;70.25;99878.84;5056718;28;20082;-76
2023/05/20 05:59:10;;;;;;;17.97;6.63;;;;;;;13.67;69.73;99873.22;5057600;28;20112;-76
2023/05/20 06:01:36;;;;;;;17.83;6.70;;;;;;;13.74;69.91;99888.03;5057623;28;20040;-76
2023/05/20 06:04:01;;;;;;;18.33;6.93;;;;;;;13.76;69.54;99882.72;5057723;28;20366;-76
2023/05/20 06:06:27;;;;;;;15.52;7.30;;;;;;;13.80;69.83;99883.50;5069298;28;20117;-76
2023/05/20 06:08:52;;;;;;;17.83;6.50;;;;;;;13.84;69.70;99882.50;5039567;28;20059;-76
2023/05/20 06:11:18;;;;;;;17.07;6.47;;;;;;;13.84;69.76;99879.84;5061013;28;20057;-76
2023/05/20 06:13:43;;;;;;;21.17;6.90;;;;;;;13.85;69.69;99876.31;5057098;28;20120;-76
2023/05/20 06:16:09;;;;;;;19.03;7.47;;;;;;;13.78;69.71;99879.09;5039330;28;20047;-76
2023/05/20 06:18:34;;;;;;;21.17;7.73;;;;;;;13.76;69.70;99883.56;5054552;28;20074;-76
2023/05/20 06:20:59;;;;;;;20.20;7.17;;;;;;;13.73;69.93;99881.00;5076756;28;20094;-76
2023/05/20 06:23:25;;;;;;;17.97;7.53;;;;;;;13.73;70.17;99888.03;5064489;28;20491;-76
2023/05/20 06:25:51;;;;;;;19.25;7.68;;;;;;;13.71;70.05;99888.09;5076879;28;20035;-76
2023/05/20 06:28:16;;;;;;;17.67;7.33;;;;;;;13.73;70.10;99890.69;5077019;28;20158;-76
2023/05/20 06:30:42;;;;;;;17.92;6.60;;;;;;;13.74;70.10;99885.38;5077192;28;20991;-76
2023/05/20 06:33:07;;;;;;;16.83;6.53;;;;;;;13.76;70.25;99888.84;5039809;28;20471;-76
2023/05/20 06:35:36;;;;;;;15.27;6.78;;;;;;;13.74;69.92;99885.38;5071286;28;20032;-76
2023/05/20 06:38:02;;;;;;;18.93;6.87;;;;;;;13.76;70.18;99891.50;5058949;28;20111;-76
2023/05/20 06:40:27;;;;;;;14.00;6.65;;;;;;;13.82;69.79;99897.56;5049292;28;20059;-76
2023/05/20 06:42:53;;;;;;;16.77;6.80;;;;;;;13.86;69.98;99889.50;5039065;28;20086;-76
2023/05/20 06:45:18;;;;;;;19.35;6.75;;;;;;;13.90;69.80;99890.31;5056730;28;20116;-76
2023/05/20 06:47:44;;;;;;;15.70;6.77;;;;;;;13.93;69.78;99895.53;5056655;28;20996;-76
2023/05/20 06:50:10;;;;;;;13.93;6.32;;;;;;;13.96;69.52;99889.28;5050190;28;20029;-76
2023/05/20 06:52:36;;;;;;;15.97;6.40;;;;;;;13.99;69.65;99894.53;5076906;28;20032;-76
2023/05/20 06:55:03;;;;;;;18.27;7.10;;;;;;;14.02;69.61;99890.00;5048890;28;20031;-76
2023/05/20 06:57:28;;;;;;;14.70;6.35;;;;;;;14.06;69.17;99888.16;5056636;28;20039;-76
2023/05/20 06:59:54;;;;;;;14.57;6.50;;;;;;;14.09;69.28;99889.84;5056472;28;20029;-76
2023/05/20 07:02:20;;;;;;;18.17;6.60;;;;;;;14.15;69.20;99887.06;5056462;28;20033;-76
2023/05/20 07:04:45;;;;;;;15.57;6.50;;;;;;;14.19;69.11;99891.38;5056439;28;20036;-76
2023/05/20 07:07:11;;;;;;;16.03;6.33;;;;;;;14.20;68.79;99888.69;5068419;28;20025;-76
2023/05/20 07:09:36;;;;;;;15.63;6.63;;;;;;;14.24;68.60;99884.19;5059918;28;20107;-76
2023/05/20 07:12:02;;;;;;;17.80;6.20;;;;;;;14.26;68.75;99887.66;5038639;28;20533;-76
2023/05/20 07:14:27;;;;;;;17.10;7.17;;;;;;;14.32;68.68;99882.19;5038478;28;20040;-77
2023/05/20 07:16:53;;;;;;;17.57;7.50;;;;;;;14.40;68.68;99879.34;5041577;28;20029;-77
2023/05/20 07:19:18;;;;;;;16.95;6.50;;;;;;;14.50;68.31;99879.97;5038561;28;20031;-76
2023/05/20 07:21:44;;;;;;;14.80;6.83;;;;;;;14.57;68.17;99870.94;5056394;28;20021;-76
2023/05/20 07:24:09;;;;;;;14.83;6.27;;;;;;;14.66;68.05;99872.47;5056356;28;20033;-76
2023/05/20 07:26:35;;;;;;;15.43;6.40;;;;;;;14.72;67.82;99874.13;5056293;28;20063;-77
2023/05/20 07:29:02;;;;;;;20.33;6.50;;;;;;;14.77;67.41;99872.22;5056522;28;20017;-76
2023/05/20 07:31:28;;;;;;;17.33;6.70;;;;;;;14.85;67.29;99870.25;5056124;28;20024;-77
2023/05/20 07:33:53;;;;;;;17.90;6.63;;;;;;;14.95;67.08;99869.97;5035128;28;20030;-76
2023/05/20 07:36:18;;;;;;;12.43;6.10;;;;;;;15.06;67.03;99867.88;5055527;28;20484;-76
2023/05/20 07:38:44;;;;;;;15.37;6.20;;;;;;;15.22;66.47;99868.31;5056604;28;20033;-77
2023/05/20 07:41:10;;;;;;;17.77;6.53;;;;;;;15.44;65.94;99863.22;5057379;28;20351;-76
2023/05/20 07:43:35;;;;;;;14.03;6.13;;;;;;;15.59;65.28;99859.22;5055455;28;20049;-76
2023/05/20 07:46:01;;;;;;;14.90;5.80;;;;;;;15.69;64.99;99859.78;5038857;28;20267;-76
2023/05/20 07:48:27;;;;;;;12.20;5.47;;;;;;;15.72;64.85;99865.00;5058181;28;20029;-76
2023/05/20 07:50:52;;;;;;;16.13;6.10;;;;;;;15.79;64.81;99863.91;5055969;28;20059;-76
2023/05/20 07:53:18;;;;;;;19.43;6.27;;;;;;;15.88;64.26;99867.16;5045730;28;20036;-76
2023/05/20 07:55:43;;;;;;;14.13;5.47;;;;;;;16.05;64.00;99853.38;5055517;28;20025;-76
2023/05/20 07:58:09;;;;;;;14.95;5.72;;;;;;;16.16;63.63;99858.31;5037973;28;20615;-76
2023/05/20 08:00:35;;;;;;;12.60;5.90;;;;;;;16.19;63.32;99858.22;5037835;28;20053;-76
2023/05/20 08:03:00;;;;;;;16.02;5.78;;;;;;;16.21;63.17;99859.03;5055909;28;20025;-76
2023/05/20 08:05:25;;;;;;;13.33;5.70;;;;;;;16.26;63.52;99857.06;5060955;28;20043;-76
2023/05/20 08:07:51;;;;;;;13.70;5.00;;;;;;;16.26;63.47;99857.06;5044422;28;20025;-75
2023/05/20 08:10:16;;;;;;;12.70;6.28;;;;;;;16.23;63.29;99857.19;5059568;28;20025;-76
2023/05/20 08:12:42;;;;;;;13.33;5.37;;;;;;;16.16;62.86;99856.53;5058734;28;20056;-75
2023/05/20 08:15:08;;;;;;;14.80;5.53;;;;;;;16.10;62.87;99861.19;5075872;28;20038;-75
2023/05/20 08:17:34;;;;;;;14.43;5.40;;;;;;;16.04;62.92;99848.97;5067299;28;20025;-75
2023/05/20 08:20:00;;;;;;;12.03;5.23;;;;;;;16.01;63.10;99855.25;5056256;28;20047;-76
2023/05/20 08:22:25;;;;;;;13.45;5.20;;;;;;;16.00;63.39;99847.34;5059777;28;20104;-75
2023/05/20 08:24:51;;;;;;;13.70;5.30;;;;;;;15.96;62.72;99849.22;5044838;28;20060;-75
2023/05/20 08:27:16;;;;;;;13.00;5.10;;;;;;;15.97;62.74;99845.66;5040378;28;20108;-75
2023/05/20 08:29:44;;;;;;;13.20;4.80;;;;;;;15.98;63.03;99846.53;5075479;28;20033;-76
2023/05/20 08:32:10;;;;;;;11.15;5.38;;;;;;;16.00;62.88;99852.66;5058491;28;20492;-75
2023/05/20 08:34:35;;;;;;;13.20;5.17;;;;;;;15.98;62.59;99835.91;5065605;28;20024;-75
2023/05/20 08:37:01;;;;;;;13.90;5.35;;;;;;;16.00;63.02;99842.88;5078879;28;20040;-75
2023/05/20 08:39:27;;;;;;;14.07;5.43;;;;;;;16.08;62.77;99842.63;5062920;28;20032;-74
2023/05/20 08:41:52;;;;;;;12.10;4.93;;;;;;;16.17;62.68;99841.44;5058692;28;20021;-78
2023/05/20 08:44:20;;;;;;;11.80;4.53;;;;;;;16.28;62.43;99839.31;5045505;28;20484;-77
2023/05/20 08:46:47;;;;;;;13.02;4.68;;;;;;;16.39;62.29;99835.41;5078874;28;20036;-76
2023/05/20 08:49:13;;;;;;;14.15;4.40;;;;;;;16.48;61.98;99840.38;5078885;28;20107;-76
2023/05/20 08:51:38;;;;;;;12.43;4.57;;;;;;;16.53;61.67;99837.56;5064427;28;20113;-76
2023/05/20 08:54:05;;;;;;;11.40;4.23;;;;;;;16.59;61.55;99830.25;5041807;28;20029;-76
2023/05/20 08:56:32;;;;;;;15.27;5.10;;;;;;;16.70;61.18;99823.66;5060003;28;20263;-76
2023/05/20 08:58:58;;;;;;;12.02;4.68;;;;;;;16.77;60.65;99827.84;5039457;28;20052;-81
2023/05/20 09:01:24;;;;;;;15.40;4.87;;;;;;;16.82;60.43;99828.53;5060772;28;20473;-81
2023/05/20 09:03:50;;;;;;;10.82;4.50;;;;;;;16.91;60.43;99825.53;5041609;28;20024;-81
2023/05/20 09:06:19;;;;;;;13.82;4.90;;;;;;;17.03;60.28;99826.88;5066878;28;20486;-81
2023/05/20 09:08:45;;;;;;;11.83;4.13;;;;;;;17.18;60.54;99821.91;5040309;28;20039;-78
2023/05/20 09:11:11;;;;;;;20.83;9.38;;;;;;;17.30;59.97;99825.91;5061639;28;20037;-74
2023/05/20 09:13:37;;;;;;;14.20;5.93;;;;;;;17.41;59.39;99828.97;5057777;28;20049;-73
2023/05/20 09:16:02;;;;;;;12.27;4.67;;;;;;;17.52;59.13;99817.06;5058197;28;20485;-80
2023/05/20 09:18:28;;;;;;;11.17;4.50;;;;;;;17.66;58.85;99814.69;5054066;28;20039;-72
2023/05/20 09:20:54;;;;;;;10.70;4.18;;;;;;;17.81;58.47;99809.66;5078141;28;20064;-70
2023/05/20 09:23:24;;;;;;;11.77;4.23;;;;;;;17.93;57.99;99806.47;5054653;28;20120;-75
2023/05/20 09:25:53;;;;;;;12.70;4.40;;;;;;;18.00;57.65;99807.97;5051635;28;20401;-76
2023/05/20 09:28:23;;;;;;;14.23;5.53;;;;;;;18.07;57.22;99809.47;5057805;28;20033;-75
2023/05/20 09:30:50;;;;;;;10.02;3.97;;;;;;;18.15;56.83;99800.28;5057637;28;20449;-74
2023/05/20 09:33:16;;;;;;;12.52;4.40;;;;;;;18.26;56.57;99802.47;5057940;28;20040;-72
2023/05/20 09:35:42;;;;;;;15.73;4.33;;;;;;;18.37;56.74;99797.56;5057310;28;20024;-79
2023/05/20 09:38:10;;;;;;;10.48;4.10;;;;;;;18.47;56.35;99801.53;5065546;28;20107;-74
2023/05/20 09:40:36;;;;;;;12.23;3.65;;;;;;;18.62;56.45;99802.66;5060252;28;20398;-75
2023/05/20 09:43:05;;;;;;;16.33;5.88;;;;;;;18.76;56.21;99795.84;5057874;28;20021;-74
2023/05/20 09:45:30;;;;;;;11.37;3.97;;;;;;;18.89;55.76;99788.97;5057557;28;20060;-73
2023/05/20 09:47:56;;;;;;;10.07;4.15;;;;;;;19.03;55.17;99784.84;5057587;28;20371;-78
2023/05/20 09:50:23;;;;;;;12.70;4.10;;;;;;;19.14;54.25;99779.84;5057648;28;20039;-76
2023/05/20 09:52:51;;;;;;;11.67;3.87;;;;;;;19.24;54.51;99788.28;5057611;28;20017;-79
2023/05/20 09:55:18;;;;;;;15.10;4.00;;;;;;;19.37;54.40;99785.88;5057183;28;20040;-74
2023/05/20 09:57:44;;;;;;;10.02;3.90;;;;;;;19.46;53.53;99779.25;5057362;28;20033;-71
2023/05/20 10:00:12;;;;;;;11.52;3.92;;;;;;;19.64;53.11;99775.66;5073480;28;20092;-73
2023/05/20 10:02:42;;;;;;;8.73;3.53;;;;;;;19.82;52.14;99765.00;5067138;28;20029;-74
2023/05/20 10:05:15;;;;;;;12.03;4.13;;;;;;;19.97;52.69;99765.19;5058728;28;21359;-75
2023/05/20 10:07:59;;;;;;;12.00;4.10;;;;;;;20.26;51.11;99761.00;5067921;28;20149;-76
2023/05/20 10:10:40;;;;;;;12.30;4.28;;;;;;;20.45;51.30;99760.03;5052700;28;20037;-81
2023/05/20 10:13:38;;;;;;;9.43;3.80;;;;;;;20.54;50.80;99756.84;5056809;28;20041;-72
2023/05/20 10:16:24;;;;;;;13.15;3.70;;;;;;;20.60;50.16;99750.31;5056548;28;20114;-74
2023/05/20 10:19:10;;;;;;;12.83;3.40;;;;;;;20.53;49.50;99748.94;5055489;28;20043;-74
2023/05/20 10:21:36;;;;;;;10.75;3.50;;;;;;;20.59;49.67;99749.44;5063329;28;20115;-75
2023/05/20 10:24:09;;;;;;;10.10;3.10;;;;;;;20.76;49.59;99744.97;5058536;28;20051;-74
2023/05/20 10:26:39;;;;;;;12.55;3.05;;;;;;;21.02;49.59;99740.03;5076556;28;20039;-80
2023/05/20 10:29:18;;;;;;;10.25;3.42;;;;;;;21.23;48.54;99743.31;5076541;28;20488;-72
2023/05/20 10:31:47;;;;;;;8.17;3.00;;;;;;;21.31;47.37;99740.19;5057341;28;20056;-76
2023/05/20 10:34:21;;;;;;;8.85;2.95;;;;;;;21.19;47.20;99742.63;5038606;28;20025;-75
2023/05/20 10:36:52;;;;;;;11.20;3.45;;;;;;;21.18;47.56;99746.25;5056792;28;20039;-73
2023/05/20 10:39:18;;;;;;;9.65;3.10;;;;;;;21.22;47.85;99753.16;5067587;28;20400;-73
2023/05/20 10:41:43;;;;;;;11.20;3.30;;;;;;;21.25;47.54;99746.78;5056775;28;20028;-73
2023/05/20 10:44:09;;;;;;;11.23;3.37;;;;;;;21.27;47.49;99749.34;5055701;28;20744;-74
2023/05/20 10:46:34;;;;;;;9.03;3.60;;;;;;;21.30;47.22;99757.19;5056471;28;20029;-76
2023/05/20 10:49:04;;;;;;;10.43;3.47;;;;;;;21.28;46.92;99754.63;5056251;28;20559;-74
2023/05/20 10:51:31;;;;;;;11.07;3.00;;;;;;;21.17;47.16;99755.22;5049185;28;20040;-74
2023/05/20 10:53:56;;;;;;;8.48;2.85;;;;;;;21.12;47.19;99749.28;5058530;28;20029;-73
2023/05/20 10:56:25;;;;;;;9.50;3.03;;;;;;;21.11;47.30;99744.00;5055919;28;20058;-81
2023/05/20 10:58:53;;;;;;;9.10;3.10;;;;;;;21.11;46.43;99744.88;5056369;28;20033;-82
2023/05/20 11:01:23;;;;;;;8.20;2.80;;;;;;;21.17;46.90;99749.00;5056180;28;20029;-76
2023/05/20 11:03:50;;;;;;;9.27;2.97;;;;;;;21.22;47.35;99741.59;5037877;28;20016;-80
2023/05/20 11:06:17;;;;;;;9.82;3.80;;;;;;;21.20;46.20;99740.78;5054616;28;20041;-77
2023/05/20 11:08:43;;;;;;;9.23;3.03;;;;;;;21.14;46.48;99734.00;5075173;28;20078;-74
2023/05/20 11:11:13;;;;;;;12.95;3.40;;;;;;;21.16;46.28;99726.72;5059654;28;20087;-72
2023/05/20 11:13:39;;;;;;;9.10;2.87;;;;;;;21.23;46.82;99733.47;5055793;28;20044;-79
2023/05/20 11:16:05;;;;;;;10.85;3.47;;;;;;;21.37;46.37;99729.13;5056066;28;20033;-72
2023/05/20 11:18:31;;;;;;;7.95;2.70;;;;;;;21.40;45.33;99728.94;5033717;28;20024;-70
2023/05/20 11:21:00;;;;;;;8.37;2.60;;;;;;;21.39;45.55;99721.88;5065521;28;20051;-73